sensor_id;sensor_type;location;lat;lon;timestamp;temperature;humidity
44431;DHT22;30135;47.866;-4.222;2022-07-09T00:02:01;20.60;65.80
44431;DHT22;30135;47.866;-4.222;2022-07-09T00:04:26;20.60;65.90
44431;DHT22;30135;47.866;-4.222;2022-07-09T00:06:52;20.50;65.90
44431;DHT22;30135;47.866;-4.222;2022-07-09T00:09:18;20.50;66.00
44431;DHT22;30135;47.866;-4.222;2022-07-09T00:11:44;20.50;66.00
44431;DHT22;30135;47.866;-4.222;2022-07-09T00:14:10;20.40;66.10
44431;DHT22;30135;47.866;-4.222;2022-07-09T00:16:36;20.40;66.20
44431;DHT22;30135;47.866;-4.222;2022-07-09T00:19:02;20.40;66.30
44431;DHT22;30135;47.866;-4.222;2022-07-09T00:21:28;20.40;66.40
44431;DHT22;30135;47.866;-4.222;2022-07-09T00:23:54;20.40;66.50
44431;DHT22;30135;47.866;-4.222;2022-07-09T00:26:19;20.30;66.50
44431;DHT22;30135;47.866;-4.222;2022-07-09T00:28:45;20.30;66.50
44431;DHT22;30135;47.866;-4.222;2022-07-09T00:31:11;20.30;66.60
44431;DHT22;30135;47.866;-4.222;2022-07-09T00:33:37;20.30;66.60
44431;DHT22;30135;47.866;-4.222;2022-07-09T00:36:03;20.30;66.80
44431;DHT22;30135;47.866;-4.222;2022-07-09T00:38:30;20.20;66.80
44431;DHT22;30135;47.866;-4.222;2022-07-09T00:40:56;20.20;66.90
44431;DHT22;30135;47.866;-4.222;2022-07-09T00:43:22;20.20;67.00
44431;DHT22;30135;47.866;-4.222;2022-07-09T00:45:49;20.20;67.00
44431;DHT22;30135;47.866;-4.222;2022-07-09T00:48:15;20.20;67.10
44431;DHT22;30135;47.866;-4.222;2022-07-09T00:50:43;20.20;67.20
44431;DHT22;30135;47.866;-4.222;2022-07-09T00:53:10;20.10;67.30
44431;DHT22;30135;47.866;-4.222;2022-07-09T00:55:38;20.10;67.40
44431;DHT22;30135;47.866;-4.222;2022-07-09T00:58:04;20.10;67.40
44431;DHT22;30135;47.866;-4.222;2022-07-09T01:00:33;20.10;67.40
44431;DHT22;30135;47.866;-4.222;2022-07-09T01:03:00;20.10;67.50
44431;DHT22;30135;47.866;-4.222;2022-07-09T01:05:26;20.00;67.40
44431;DHT22;30135;47.866;-4.222;2022-07-09T01:07:52;20.00;67.60
44431;DHT22;30135;47.866;-4.222;2022-07-09T01:10:19;20.00;67.60
44431;DHT22;30135;47.866;-4.222;2022-07-09T01:12:45;20.00;67.70
44431;DHT22;30135;47.866;-4.222;2022-07-09T01:15:11;20.00;67.80
44431;DHT22;30135;47.866;-4.222;2022-07-09T01:17:39;20.00;67.80
44431;DHT22;30135;47.866;-4.222;2022-07-09T01:20:06;19.90;67.70
44431;DHT22;30135;47.866;-4.222;2022-07-09T01:22:34;19.90;67.80
44431;DHT22;30135;47.866;-4.222;2022-07-09T01:25:01;19.90;67.90
44431;DHT22;30135;47.866;-4.222;2022-07-09T01:27:30;19.90;67.90
44431;DHT22;30135;47.866;-4.222;2022-07-09T01:29:57;19.90;68.00
44431;DHT22;30135;47.866;-4.222;2022-07-09T01:32:23;19.90;68.10
44431;DHT22;30135;47.866;-4.222;2022-07-09T01:34:48;19.90;68.10
44431;DHT22;30135;47.866;-4.222;2022-07-09T01:37:14;19.80;68.10
44431;DHT22;30135;47.866;-4.222;2022-07-09T01:39:41;19.80;68.30
44431;DHT22;30135;47.866;-4.222;2022-07-09T01:42:19;19.80;68.30
44431;DHT22;30135;47.866;-4.222;2022-07-09T01:44:47;19.80;68.40
44431;DHT22;30135;47.866;-4.222;2022-07-09T01:47:16;19.80;68.50
44431;DHT22;30135;47.866;-4.222;2022-07-09T01:49:42;19.70;68.50
44431;DHT22;30135;47.866;-4.222;2022-07-09T01:52:09;19.70;68.60
44431;DHT22;30135;47.866;-4.222;2022-07-09T01:54:35;19.70;68.70
44431;DHT22;30135;47.866;-4.222;2022-07-09T01:57:01;19.70;68.80
44431;DHT22;30135;47.866;-4.222;2022-07-09T01:59:27;19.70;69.00
44431;DHT22;30135;47.866;-4.222;2022-07-09T02:01:53;19.70;69.00
44431;DHT22;30135;47.866;-4.222;2022-07-09T02:04:19;19.70;69.00
44431;DHT22;30135;47.866;-4.222;2022-07-09T02:06:45;19.70;69.00
44431;DHT22;30135;47.866;-4.222;2022-07-09T02:09:11;19.70;70.00
44431;DHT22;30135;47.866;-4.222;2022-07-09T02:11:37;19.60;69.20
44431;DHT22;30135;47.866;-4.222;2022-07-09T02:14:02;19.60;69.30
44431;DHT22;30135;47.866;-4.222;2022-07-09T02:16:29;19.60;69.40
44431;DHT22;30135;47.866;-4.222;2022-07-09T02:18:55;19.60;69.60
44431;DHT22;30135;47.866;-4.222;2022-07-09T02:21:21;19.60;69.60
44431;DHT22;30135;47.866;-4.222;2022-07-09T02:23:47;19.60;69.70
44431;DHT22;30135;47.866;-4.222;2022-07-09T02:26:14;19.60;69.80
44431;DHT22;30135;47.866;-4.222;2022-07-09T02:28:40;19.60;69.80
44431;DHT22;30135;47.866;-4.222;2022-07-09T02:31:07;19.60;69.90
44431;DHT22;30135;47.866;-4.222;2022-07-09T02:33:33;19.60;70.00
44431;DHT22;30135;47.866;-4.222;2022-07-09T02:35:59;19.50;70.00
44431;DHT22;30135;47.866;-4.222;2022-07-09T02:38:25;19.50;70.10
44431;DHT22;30135;47.866;-4.222;2022-07-09T02:40:51;19.50;70.30
44431;DHT22;30135;47.866;-4.222;2022-07-09T02:43:17;19.50;70.40
44431;DHT22;30135;47.866;-4.222;2022-07-09T02:45:43;19.50;70.50
44431;DHT22;30135;47.866;-4.222;2022-07-09T02:48:09;19.50;70.60
44431;DHT22;30135;47.866;-4.222;2022-07-09T02:50:35;19.50;70.70
44431;DHT22;30135;47.866;-4.222;2022-07-09T02:53:01;19.50;70.80
44431;DHT22;30135;47.866;-4.222;2022-07-09T02:55:27;19.40;70.90
44431;DHT22;30135;47.866;-4.222;2022-07-09T02:57:53;19.40;71.00
44431;DHT22;30135;47.866;-4.222;2022-07-09T03:00:19;19.40;71.10
44431;DHT22;30135;47.866;-4.222;2022-07-09T03:02:45;19.40;71.20
44431;DHT22;30135;47.866;-4.222;2022-07-09T03:05:11;19.40;71.40
44431;DHT22;30135;47.866;-4.222;2022-07-09T03:07:37;19.40;71.40
44431;DHT22;30135;47.866;-4.222;2022-07-09T03:10:03;19.40;71.50
44431;DHT22;30135;47.866;-4.222;2022-07-09T03:12:30;19.40;71.70
44431;DHT22;30135;47.866;-4.222;2022-07-09T03:14:57;19.40;71.80
44431;DHT22;30135;47.866;-4.222;2022-07-09T03:17:23;19.40;71.90
44431;DHT22;30135;47.866;-4.222;2022-07-09T03:19:51;19.40;72.00
44431;DHT22;30135;47.866;-4.222;2022-07-09T03:22:19;19.40;72.10
44431;DHT22;30135;47.866;-4.222;2022-07-09T03:24:45;19.40;72.30
44431;DHT22;30135;47.866;-4.222;2022-07-09T03:27:11;19.40;72.40
44431;DHT22;30135;47.866;-4.222;2022-07-09T03:29:36;19.40;72.60
44431;DHT22;30135;47.866;-4.222;2022-07-09T03:32:02;19.40;72.60
44431;DHT22;30135;47.866;-4.222;2022-07-09T03:34:29;19.40;72.70
44431;DHT22;30135;47.866;-4.222;2022-07-09T03:36:55;19.40;72.90
44431;DHT22;30135;47.866;-4.222;2022-07-09T03:39:21;19.30;73.00
44431;DHT22;30135;47.866;-4.222;2022-07-09T03:41:47;19.40;73.10
44431;DHT22;30135;47.866;-4.222;2022-07-09T03:44:13;19.30;73.30
44431;DHT22;30135;47.866;-4.222;2022-07-09T03:46:39;19.30;73.30
44431;DHT22;30135;47.866;-4.222;2022-07-09T03:49:05;19.30;73.60
44431;DHT22;30135;47.866;-4.222;2022-07-09T03:51:31;19.30;73.70
44431;DHT22;30135;47.866;-4.222;2022-07-09T03:53:57;19.30;73.80
44431;DHT22;30135;47.866;-4.222;2022-07-09T03:56:23;19.30;74.00
44431;DHT22;30135;47.866;-4.222;2022-07-09T03:58:49;19.30;74.10
44431;DHT22;30135;47.866;-4.222;2022-07-09T04:01:14;19.30;74.10
44431;DHT22;30135;47.866;-4.222;2022-07-09T04:03:40;19.30;74.30
44431;DHT22;30135;47.866;-4.222;2022-07-09T04:06:06;19.30;74.40
44431;DHT22;30135;47.866;-4.222;2022-07-09T04:08:33;19.30;74.40
44431;DHT22;30135;47.866;-4.222;2022-07-09T04:10:59;19.30;74.50
44431;DHT22;30135;47.866;-4.222;2022-07-09T04:13:25;19.30;74.60
44431;DHT22;30135;47.866;-4.222;2022-07-09T04:15:51;19.30;74.60
44431;DHT22;30135;47.866;-4.222;2022-07-09T04:18:16;19.40;74.80
44431;DHT22;30135;47.866;-4.222;2022-07-09T04:20:42;19.30;74.90
44431;DHT22;30135;47.866;-4.222;2022-07-09T04:23:09;19.30;74.90
44431;DHT22;30135;47.866;-4.222;2022-07-09T04:25:35;19.30;75.00
44431;DHT22;30135;47.866;-4.222;2022-07-09T04:28:03;19.30;75.10
44431;DHT22;30135;47.866;-4.222;2022-07-09T04:30:31;19.30;75.30
44431;DHT22;30135;47.866;-4.222;2022-07-09T04:32:57;19.30;75.40
44431;DHT22;30135;47.866;-4.222;2022-07-09T04:35:26;19.30;75.60
44431;DHT22;30135;47.866;-4.222;2022-07-09T04:37:52;19.30;75.70
44431;DHT22;30135;47.866;-4.222;2022-07-09T04:40:18;19.30;75.80
44431;DHT22;30135;47.866;-4.222;2022-07-09T04:42:43;19.20;75.80
44431;DHT22;30135;47.866;-4.222;2022-07-09T04:45:10;19.20;76.00
44431;DHT22;30135;47.866;-4.222;2022-07-09T04:47:36;19.20;76.10
44431;DHT22;30135;47.866;-4.222;2022-07-09T04:50:02;19.20;76.30
44431;DHT22;30135;47.866;-4.222;2022-07-09T04:52:29;19.20;76.40
44431;DHT22;30135;47.866;-4.222;2022-07-09T04:54:55;19.20;76.60
44431;DHT22;30135;47.866;-4.222;2022-07-09T04:57:21;19.20;76.70
44431;DHT22;30135;47.866;-4.222;2022-07-09T04:59:47;19.20;76.90
44431;DHT22;30135;47.866;-4.222;2022-07-09T05:02:13;19.20;77.00
44431;DHT22;30135;47.866;-4.222;2022-07-09T05:04:39;19.20;77.20
44431;DHT22;30135;47.866;-4.222;2022-07-09T05:07:05;19.20;77.30
44431;DHT22;30135;47.866;-4.222;2022-07-09T05:09:31;19.20;77.50
44431;DHT22;30135;47.866;-4.222;2022-07-09T05:11:57;19.20;77.50
44431;DHT22;30135;47.866;-4.222;2022-07-09T05:14:23;19.20;77.70
44431;DHT22;30135;47.866;-4.222;2022-07-09T05:16:49;19.20;77.80
44431;DHT22;30135;47.866;-4.222;2022-07-09T05:19:15;19.20;77.90
44431;DHT22;30135;47.866;-4.222;2022-07-09T05:21:41;19.20;78.00
44431;DHT22;30135;47.866;-4.222;2022-07-09T05:24:07;19.20;78.20
44431;DHT22;30135;47.866;-4.222;2022-07-09T05:26:34;19.20;78.30
44431;DHT22;30135;47.866;-4.222;2022-07-09T05:29:02;19.20;78.40
44431;DHT22;30135;47.866;-4.222;2022-07-09T05:31:29;19.20;78.60
44431;DHT22;30135;47.866;-4.222;2022-07-09T05:33:55;19.20;78.70
44431;DHT22;30135;47.866;-4.222;2022-07-09T05:36:22;19.20;78.90
44431;DHT22;30135;47.866;-4.222;2022-07-09T05:38:48;19.20;79.00
44431;DHT22;30135;47.866;-4.222;2022-07-09T05:41:13;19.20;79.10
44431;DHT22;30135;47.866;-4.222;2022-07-09T05:43:43;19.20;79.20
44431;DHT22;30135;47.866;-4.222;2022-07-09T05:46:09;19.20;79.40
44431;DHT22;30135;47.866;-4.222;2022-07-09T05:48:35;19.20;79.50
44431;DHT22;30135;47.866;-4.222;2022-07-09T05:51:01;19.20;79.60
44431;DHT22;30135;47.866;-4.222;2022-07-09T05:53:28;19.20;79.60
44431;DHT22;30135;47.866;-4.222;2022-07-09T05:55:54;19.20;79.80
44431;DHT22;30135;47.866;-4.222;2022-07-09T05:58:20;19.20;79.70
44431;DHT22;30135;47.866;-4.222;2022-07-09T06:00:46;19.20;80.60
44431;DHT22;30135;47.866;-4.222;2022-07-09T06:03:12;19.20;79.80
44431;DHT22;30135;47.866;-4.222;2022-07-09T06:05:38;19.20;79.90
44431;DHT22;30135;47.866;-4.222;2022-07-09T06:08:04;19.30;80.10
44431;DHT22;30135;47.866;-4.222;2022-07-09T06:10:30;19.30;80.10
44431;DHT22;30135;47.866;-4.222;2022-07-09T06:12:56;19.30;80.10
44431;DHT22;30135;47.866;-4.222;2022-07-09T06:15:22;19.30;80.20
44431;DHT22;30135;47.866;-4.222;2022-07-09T06:17:48;19.30;80.20
44431;DHT22;30135;47.866;-4.222;2022-07-09T06:20:16;19.30;80.30
44431;DHT22;30135;47.866;-4.222;2022-07-09T06:22:42;19.40;80.30
44431;DHT22;30135;47.866;-4.222;2022-07-09T06:25:08;19.40;80.30
44431;DHT22;30135;47.866;-4.222;2022-07-09T06:27:35;19.40;80.30
44431;DHT22;30135;47.866;-4.222;2022-07-09T06:30:01;19.40;80.30
44431;DHT22;30135;47.866;-4.222;2022-07-09T06:32:28;19.40;80.40
44431;DHT22;30135;47.866;-4.222;2022-07-09T06:34:54;19.40;80.50
44431;DHT22;30135;47.866;-4.222;2022-07-09T06:37:20;19.50;81.70
44431;DHT22;30135;47.866;-4.222;2022-07-09T06:39:46;19.50;80.70
44431;DHT22;30135;47.866;-4.222;2022-07-09T06:42:14;19.50;80.70
44431;DHT22;30135;47.866;-4.222;2022-07-09T06:44:42;19.60;80.60
44431;DHT22;30135;47.866;-4.222;2022-07-09T06:47:08;19.60;80.50
44431;DHT22;30135;47.866;-4.222;2022-07-09T06:49:35;19.60;80.30
44431;DHT22;30135;47.866;-4.222;2022-07-09T06:52:02;19.60;80.10
44431;DHT22;30135;47.866;-4.222;2022-07-09T06:54:29;19.60;80.20
44431;DHT22;30135;47.866;-4.222;2022-07-09T06:56:55;19.70;80.40
44431;DHT22;30135;47.866;-4.222;2022-07-09T06:59:23;19.70;80.40
44431;DHT22;30135;47.866;-4.222;2022-07-09T07:01:49;19.70;80.20
44431;DHT22;30135;47.866;-4.222;2022-07-09T07:04:15;19.80;80.50
44431;DHT22;30135;47.866;-4.222;2022-07-09T07:06:42;19.80;80.50
44431;DHT22;30135;47.866;-4.222;2022-07-09T07:09:08;19.80;80.50
44431;DHT22;30135;47.866;-4.222;2022-07-09T07:11:35;19.90;80.40
44431;DHT22;30135;47.866;-4.222;2022-07-09T07:14:01;19.90;81.10
44431;DHT22;30135;47.866;-4.222;2022-07-09T07:16:27;19.90;80.40
44431;DHT22;30135;47.866;-4.222;2022-07-09T07:18:53;19.90;80.40
44431;DHT22;30135;47.866;-4.222;2022-07-09T07:21:20;19.90;80.30
44431;DHT22;30135;47.866;-4.222;2022-07-09T07:23:46;20.00;80.40
44431;DHT22;30135;47.866;-4.222;2022-07-09T07:26:12;20.10;80.30
44431;DHT22;30135;47.866;-4.222;2022-07-09T07:28:38;20.10;80.30
44431;DHT22;30135;47.866;-4.222;2022-07-09T07:31:04;20.10;80.30
44431;DHT22;30135;47.866;-4.222;2022-07-09T07:33:30;20.10;80.20
44431;DHT22;30135;47.866;-4.222;2022-07-09T07:35:56;20.20;80.50
44431;DHT22;30135;47.866;-4.222;2022-07-09T07:38:22;20.20;80.30
44431;DHT22;30135;47.866;-4.222;2022-07-09T07:40:48;20.20;80.20
44431;DHT22;30135;47.866;-4.222;2022-07-09T07:43:14;20.30;80.40
44431;DHT22;30135;47.866;-4.222;2022-07-09T07:45:40;20.40;80.30
44431;DHT22;30135;47.866;-4.222;2022-07-09T07:48:06;20.40;80.40
44431;DHT22;30135;47.866;-4.222;2022-07-09T07:50:32;20.50;80.10
44431;DHT22;30135;47.866;-4.222;2022-07-09T07:52:58;20.50;80.90
44431;DHT22;30135;47.866;-4.222;2022-07-09T07:55:26;20.60;80.30
44431;DHT22;30135;47.866;-4.222;2022-07-09T07:57:51;20.70;79.90
44431;DHT22;30135;47.866;-4.222;2022-07-09T08:00:18;20.70;79.90
44431;DHT22;30135;47.866;-4.222;2022-07-09T08:02:44;20.80;79.90
44431;DHT22;30135;47.866;-4.222;2022-07-09T08:05:10;20.80;79.60
44431;DHT22;30135;47.866;-4.222;2022-07-09T08:07:37;20.90;79.50
44431;DHT22;30135;47.866;-4.222;2022-07-09T08:10:03;20.90;79.40
44431;DHT22;30135;47.866;-4.222;2022-07-09T08:12:29;20.90;79.10
44431;DHT22;30135;47.866;-4.222;2022-07-09T08:14:55;21.00;79.10
44431;DHT22;30135;47.866;-4.222;2022-07-09T08:17:21;21.10;78.80
44431;DHT22;30135;47.866;-4.222;2022-07-09T08:19:47;21.20;78.70
44431;DHT22;30135;47.866;-4.222;2022-07-09T08:22:13;21.20;78.30
44431;DHT22;30135;47.866;-4.222;2022-07-09T08:24:38;21.30;78.10
44431;DHT22;30135;47.866;-4.222;2022-07-09T08:27:04;21.30;77.80
44431;DHT22;30135;47.866;-4.222;2022-07-09T08:29:30;21.40;77.70
44431;DHT22;30135;47.866;-4.222;2022-07-09T08:31:56;21.50;77.60
44431;DHT22;30135;47.866;-4.222;2022-07-09T08:34:22;21.50;77.10
44431;DHT22;30135;47.866;-4.222;2022-07-09T08:36:48;21.50;76.90
44431;DHT22;30135;47.866;-4.222;2022-07-09T08:39:14;21.50;76.70
44431;DHT22;30135;47.866;-4.222;2022-07-09T08:41:40;21.60;76.60
44431;DHT22;30135;47.866;-4.222;2022-07-09T08:44:10;21.70;76.30
44431;DHT22;30135;47.866;-4.222;2022-07-09T08:46:38;21.70;76.20
44431;DHT22;30135;47.866;-4.222;2022-07-09T08:49:09;21.80;75.90
44431;DHT22;30135;47.866;-4.222;2022-07-09T08:51:36;21.80;75.50
44431;DHT22;30135;47.866;-4.222;2022-07-09T08:54:04;21.90;75.40
44431;DHT22;30135;47.866;-4.222;2022-07-09T08:56:31;21.90;75.00
44431;DHT22;30135;47.866;-4.222;2022-07-09T08:58:56;22.00;74.40
44431;DHT22;30135;47.866;-4.222;2022-07-09T09:01:22;22.00;73.80
44431;DHT22;30135;47.866;-4.222;2022-07-09T09:03:51;22.00;73.50
44431;DHT22;30135;47.866;-4.222;2022-07-09T09:06:22;22.10;73.60
44431;DHT22;30135;47.866;-4.222;2022-07-09T09:08:52;22.10;73.20
44431;DHT22;30135;47.866;-4.222;2022-07-09T09:11:22;22.20;73.10
44431;DHT22;30135;47.866;-4.222;2022-07-09T09:13:50;22.20;72.80
44431;DHT22;30135;47.866;-4.222;2022-07-09T09:16:18;22.30;72.70
44431;DHT22;30135;47.866;-4.222;2022-07-09T09:18:47;22.30;72.50
44431;DHT22;30135;47.866;-4.222;2022-07-09T09:21:23;22.40;72.20
44431;DHT22;30135;47.866;-4.222;2022-07-09T09:23:52;22.50;71.70
44431;DHT22;30135;47.866;-4.222;2022-07-09T09:26:24;22.50;71.40
44431;DHT22;30135;47.866;-4.222;2022-07-09T09:28:56;22.60;71.10
44431;DHT22;30135;47.866;-4.222;2022-07-09T09:31:34;22.60;70.90
44431;DHT22;30135;47.866;-4.222;2022-07-09T09:34:12;22.70;70.50
44431;DHT22;30135;47.866;-4.222;2022-07-09T09:36:41;22.80;69.90
44431;DHT22;30135;47.866;-4.222;2022-07-09T09:39:23;22.80;69.70
44431;DHT22;30135;47.866;-4.222;2022-07-09T09:41:52;22.90;69.50
44431;DHT22;30135;47.866;-4.222;2022-07-09T09:44:24;23.00;69.50
44431;DHT22;30135;47.866;-4.222;2022-07-09T09:46:53;23.00;69.20
44431;DHT22;30135;47.866;-4.222;2022-07-09T09:49:19;23.10;68.80
44431;DHT22;30135;47.866;-4.222;2022-07-09T09:52:08;23.10;68.60
44431;DHT22;30135;47.866;-4.222;2022-07-09T09:54:38;23.20;68.10
44431;DHT22;30135;47.866;-4.222;2022-07-09T09:57:10;23.30;67.90
44431;DHT22;30135;47.866;-4.222;2022-07-09T09:59:40;23.40;67.50
44431;DHT22;30135;47.866;-4.222;2022-07-09T10:02:09;23.40;67.30
44431;DHT22;30135;47.866;-4.222;2022-07-09T10:04:40;23.50;67.20
44431;DHT22;30135;47.866;-4.222;2022-07-09T10:07:11;23.60;66.50
44431;DHT22;30135;47.866;-4.222;2022-07-09T10:09:39;23.60;66.20
44431;DHT22;30135;47.866;-4.222;2022-07-09T10:12:06;23.70;66.10
44431;DHT22;30135;47.866;-4.222;2022-07-09T10:14:34;23.80;65.80
44431;DHT22;30135;47.866;-4.222;2022-07-09T10:17:16;23.80;65.20
44431;DHT22;30135;47.866;-4.222;2022-07-09T10:19:56;23.90;65.10
44431;DHT22;30135;47.866;-4.222;2022-07-09T10:22:38;23.90;64.60
44431;DHT22;30135;47.866;-4.222;2022-07-09T10:25:07;24.00;64.50
44431;DHT22;30135;47.866;-4.222;2022-07-09T10:27:47;24.10;64.40
44431;DHT22;30135;47.866;-4.222;2022-07-09T10:30:28;24.20;64.00
44431;DHT22;30135;47.866;-4.222;2022-07-09T10:35:53;24.30;64.50
44431;DHT22;30135;47.866;-4.222;2022-07-09T10:38:34;24.40;63.10
44431;DHT22;30135;47.866;-4.222;2022-07-09T10:41:02;24.50;62.70
44431;DHT22;30135;47.866;-4.222;2022-07-09T10:43:43;24.60;62.90
44431;DHT22;30135;47.866;-4.222;2022-07-09T10:46:14;24.70;62.00
44431;DHT22;30135;47.866;-4.222;2022-07-09T10:48:42;24.80;61.90
44431;DHT22;30135;47.866;-4.222;2022-07-09T10:51:22;24.90;61.80
44431;DHT22;30135;47.866;-4.222;2022-07-09T10:53:49;24.90;61.20
44431;DHT22;30135;47.866;-4.222;2022-07-09T10:56:19;25.00;61.40
44431;DHT22;30135;47.866;-4.222;2022-07-09T10:58:47;25.10;60.90
44431;DHT22;30135;47.866;-4.222;2022-07-09T11:01:19;25.20;60.40
44431;DHT22;30135;47.866;-4.222;2022-07-09T11:03:49;25.20;59.90
44431;DHT22;30135;47.866;-4.222;2022-07-09T11:06:16;25.20;59.30
44431;DHT22;30135;47.866;-4.222;2022-07-09T11:08:43;25.30;59.50
44431;DHT22;30135;47.866;-4.222;2022-07-09T11:11:09;25.40;59.70
44431;DHT22;30135;47.866;-4.222;2022-07-09T11:13:34;25.40;59.80
44431;DHT22;30135;47.866;-4.222;2022-07-09T11:16:01;25.50;59.70
44431;DHT22;30135;47.866;-4.222;2022-07-09T11:18:28;25.70;59.20
44431;DHT22;30135;47.866;-4.222;2022-07-09T11:20:55;25.80;58.80
44431;DHT22;30135;47.866;-4.222;2022-07-09T11:23:21;25.90;58.20
44431;DHT22;30135;47.866;-4.222;2022-07-09T11:25:47;26.00;58.10
44431;DHT22;30135;47.866;-4.222;2022-07-09T11:28:24;26.00;57.80
44431;DHT22;30135;47.866;-4.222;2022-07-09T11:31:03;26.10;56.90
44431;DHT22;30135;47.866;-4.222;2022-07-09T11:33:30;26.10;57.20
44431;DHT22;30135;47.866;-4.222;2022-07-09T11:36:16;26.10;57.30
44431;DHT22;30135;47.866;-4.222;2022-07-09T11:38:52;26.20;57.30
44431;DHT22;30135;47.866;-4.222;2022-07-09T11:41:19;26.20;56.80
44431;DHT22;30135;47.866;-4.222;2022-07-09T11:43:49;26.30;57.00
44431;DHT22;30135;47.866;-4.222;2022-07-09T11:46:20;26.30;56.70
44431;DHT22;30135;47.866;-4.222;2022-07-09T11:48:51;26.40;56.40
44431;DHT22;30135;47.866;-4.222;2022-07-09T11:51:32;26.40;56.50
44431;DHT22;30135;47.866;-4.222;2022-07-09T11:54:00;26.50;56.00
44431;DHT22;30135;47.866;-4.222;2022-07-09T11:56:26;26.50;56.30
44431;DHT22;30135;47.866;-4.222;2022-07-09T11:58:53;26.60;56.20
44431;DHT22;30135;47.866;-4.222;2022-07-09T12:01:19;26.60;56.30
44431;DHT22;30135;47.866;-4.222;2022-07-09T12:03:49;26.70;56.20
44431;DHT22;30135;47.866;-4.222;2022-07-09T12:06:16;26.70;56.00
44431;DHT22;30135;47.866;-4.222;2022-07-09T12:08:42;26.70;55.90
44431;DHT22;30135;47.866;-4.222;2022-07-09T12:11:08;26.80;55.80
44431;DHT22;30135;47.866;-4.222;2022-07-09T12:13:34;26.90;55.70
44431;DHT22;30135;47.866;-4.222;2022-07-09T12:16:00;26.90;55.50
44431;DHT22;30135;47.866;-4.222;2022-07-09T12:18:26;27.00;55.30
44431;DHT22;30135;47.866;-4.222;2022-07-09T12:20:53;27.10;55.10
44431;DHT22;30135;47.866;-4.222;2022-07-09T12:23:19;27.10;54.90
44431;DHT22;30135;47.866;-4.222;2022-07-09T12:25:46;27.10;54.70
44431;DHT22;30135;47.866;-4.222;2022-07-09T12:28:12;27.10;54.60
44431;DHT22;30135;47.866;-4.222;2022-07-09T12:30:38;27.20;54.60
44431;DHT22;30135;47.866;-4.222;2022-07-09T12:33:04;27.20;54.00
44431;DHT22;30135;47.866;-4.222;2022-07-09T12:35:30;27.30;54.00
44431;DHT22;30135;47.866;-4.222;2022-07-09T12:37:56;27.30;54.20
44431;DHT22;30135;47.866;-4.222;2022-07-09T12:40:22;27.30;54.00
44431;DHT22;30135;47.866;-4.222;2022-07-09T12:42:48;27.40;54.00
44431;DHT22;30135;47.866;-4.222;2022-07-09T12:45:14;27.40;53.90
44431;DHT22;30135;47.866;-4.222;2022-07-09T12:47:40;27.40;53.60
44431;DHT22;30135;47.866;-4.222;2022-07-09T12:50:06;27.50;53.20
44431;DHT22;30135;47.866;-4.222;2022-07-09T12:52:33;27.50;53.00
44431;DHT22;30135;47.866;-4.222;2022-07-09T12:55:03;27.60;52.70
44431;DHT22;30135;47.866;-4.222;2022-07-09T12:57:30;27.60;52.50
44431;DHT22;30135;47.866;-4.222;2022-07-09T12:59:56;27.60;52.40
44431;DHT22;30135;47.866;-4.222;2022-07-09T13:02:23;27.70;52.40
44431;DHT22;30135;47.866;-4.222;2022-07-09T13:04:49;27.70;52.10
44431;DHT22;30135;47.866;-4.222;2022-07-09T13:07:19;27.70;51.50
44431;DHT22;30135;47.866;-4.222;2022-07-09T13:09:46;27.70;50.90
44431;DHT22;30135;47.866;-4.222;2022-07-09T13:12:13;27.80;51.00
44431;DHT22;30135;47.866;-4.222;2022-07-09T13:14:39;27.80;51.00
44431;DHT22;30135;47.866;-4.222;2022-07-09T13:17:06;27.80;50.80
44431;DHT22;30135;47.866;-4.222;2022-07-09T13:19:32;27.80;50.70
44431;DHT22;30135;47.866;-4.222;2022-07-09T13:21:58;27.80;50.70
44431;DHT22;30135;47.866;-4.222;2022-07-09T13:24:24;27.90;50.40
44431;DHT22;30135;47.866;-4.222;2022-07-09T13:26:50;27.90;50.30
44431;DHT22;30135;47.866;-4.222;2022-07-09T13:29:16;27.90;50.40
44431;DHT22;30135;47.866;-4.222;2022-07-09T13:31:42;27.90;50.20
44431;DHT22;30135;47.866;-4.222;2022-07-09T13:34:10;27.90;49.80
44431;DHT22;30135;47.866;-4.222;2022-07-09T13:36:38;28.00;49.90
44431;DHT22;30135;47.866;-4.222;2022-07-09T13:39:07;28.00;49.80
44431;DHT22;30135;47.866;-4.222;2022-07-09T13:41:37;28.00;49.80
44431;DHT22;30135;47.866;-4.222;2022-07-09T13:44:08;28.00;49.90
44431;DHT22;30135;47.866;-4.222;2022-07-09T13:46:50;28.00;49.80
44431;DHT22;30135;47.866;-4.222;2022-07-09T13:49:27;28.00;49.60
44431;DHT22;30135;47.866;-4.222;2022-07-09T13:52:03;28.10;49.80
44431;DHT22;30135;47.866;-4.222;2022-07-09T13:54:36;28.10;49.60
44431;DHT22;30135;47.866;-4.222;2022-07-09T13:57:05;28.10;49.90
44431;DHT22;30135;47.866;-4.222;2022-07-09T13:59:36;28.10;49.90
44431;DHT22;30135;47.866;-4.222;2022-07-09T14:02:03;28.10;49.70
44431;DHT22;30135;47.866;-4.222;2022-07-09T14:04:31;28.10;49.80
44431;DHT22;30135;47.866;-4.222;2022-07-09T14:06:58;28.20;49.30
44431;DHT22;30135;47.866;-4.222;2022-07-09T14:09:26;28.10;49.10
44431;DHT22;30135;47.866;-4.222;2022-07-09T14:11:53;28.10;49.00
44431;DHT22;30135;47.866;-4.222;2022-07-09T14:14:21;28.20;49.00
44431;DHT22;30135;47.866;-4.222;2022-07-09T14:16:54;28.20;48.90
44431;DHT22;30135;47.866;-4.222;2022-07-09T14:19:35;28.20;48.70
44431;DHT22;30135;47.866;-4.222;2022-07-09T14:22:12;28.20;48.50
44431;DHT22;30135;47.866;-4.222;2022-07-09T14:24:47;28.20;48.50
44431;DHT22;30135;47.866;-4.222;2022-07-09T14:27:44;28.20;48.50
44431;DHT22;30135;47.866;-4.222;2022-07-09T14:30:51;28.30;48.30
44431;DHT22;30135;47.866;-4.222;2022-07-09T14:33:31;28.30;48.30
44431;DHT22;30135;47.866;-4.222;2022-07-09T14:36:05;28.30;48.30
44431;DHT22;30135;47.866;-4.222;2022-07-09T14:38:32;28.30;48.30
44431;DHT22;30135;47.866;-4.222;2022-07-09T14:41:08;28.40;48.20
44431;DHT22;30135;47.866;-4.222;2022-07-09T14:43:40;28.40;48.00
44431;DHT22;30135;47.866;-4.222;2022-07-09T14:46:11;28.40;48.10
44431;DHT22;30135;47.866;-4.222;2022-07-09T14:48:39;28.40;47.90
44431;DHT22;30135;47.866;-4.222;2022-07-09T14:51:28;28.40;48.10
44431;DHT22;30135;47.866;-4.222;2022-07-09T14:53:59;28.40;48.00
44431;DHT22;30135;47.866;-4.222;2022-07-09T14:56:32;28.40;48.00
44431;DHT22;30135;47.866;-4.222;2022-07-09T14:59:07;28.40;48.20
44431;DHT22;30135;47.866;-4.222;2022-07-09T15:01:40;28.50;47.20
44431;DHT22;30135;47.866;-4.222;2022-07-09T15:04:14;28.50;46.90
44431;DHT22;30135;47.866;-4.222;2022-07-09T15:06:55;28.50;47.20
44431;DHT22;30135;47.866;-4.222;2022-07-09T15:09:44;28.50;47.10
44431;DHT22;30135;47.866;-4.222;2022-07-09T15:12:30;28.50;47.20
44431;DHT22;30135;47.866;-4.222;2022-07-09T15:15:54;28.50;46.80
44431;DHT22;30135;47.866;-4.222;2022-07-09T15:19:22;28.50;46.50
44431;DHT22;30135;47.866;-4.222;2022-07-09T15:22:16;28.50;46.80
44431;DHT22;30135;47.866;-4.222;2022-07-09T15:24:58;28.40;47.20
44431;DHT22;30135;47.866;-4.222;2022-07-09T15:27:32;28.40;46.60